Time;durP1;ratioP1;P1;durP2;ratioP2;P2;SDS_P1;SDS_P2;PMS_P1;PMS_P2;Temp;Humidity;BMP_temperature;BMP_pressure;BME280_temperature;BME280_humidity;BME280_pressure;Samples;Min_cycle;Max_cycle;Signal;HPM_P1;HPM_P2
2022/05/02 00:00:49;;;;;;;12.95;9.85;;;13.80;99.90;;;;;;5093706;28;20471;-59
2022/05/02 00:03:15;;;;;;;11.60;9.25;;;13.80;99.90;;;;;;5093348;28;20023;-58
2022/05/02 00:05:41;;;;;;;11.07;8.93;;;13.80;99.90;;;;;;5093687;28;20508;-60
2022/05/02 00:08:08;;;;;;;13.30;9.35;;;13.90;99.90;;;;;;5093702;28;20107;-59
2022/05/02 00:10:34;;;;;;;17.90;12.38;;;14.00;99.90;;;;;;5092655;28;20012;-59
2022/05/02 00:13:01;;;;;;;14.40;11.15;;;14.00;99.90;;;;;;5093461;28;20080;-61
2022/05/02 00:15:27;;;;;;;18.60;12.90;;;14.00;99.90;;;;;;5093526;28;20065;-60
2022/05/02 00:17:59;;;;;;;16.35;12.13;;;14.00;99.90;;;;;;5093182;28;20028;-60
2022/05/02 00:20:34;;;;;;;14.07;10.50;;;14.00;99.90;;;;;;5093719;28;20028;-62
2022/05/02 00:23:03;;;;;;;13.88;10.13;;;13.90;99.90;;;;;;5093701;28;20462;-60
2022/05/02 00:25:29;;;;;;;18.45;12.77;;;13.90;99.90;;;;;;5093425;28;20032;-58
2022/05/02 00:27:55;;;;;;;14.55;10.55;;;14.00;99.90;;;;;;5093424;28;20039;-58
2022/05/02 00:30:21;;;;;;;15.85;10.63;;;13.90;99.90;;;;;;5093766;28;20398;-59
2022/05/02 00:32:47;;;;;;;15.07;10.93;;;13.90;99.90;;;;;;5093006;28;20029;-59
2022/05/02 00:35:13;;;;;;;13.20;9.80;;;13.90;99.90;;;;;;5093524;28;20016;-57
2022/05/02 00:37:40;;;;;;;14.02;10.05;;;13.90;99.90;;;;;;5093505;28;20028;-59
2022/05/02 00:40:07;;;;;;;15.90;11.48;;;13.90;99.90;;;;;;5093224;28;20020;-61
2022/05/02 00:42:33;;;;;;;18.67;13.57;;;13.90;99.90;;;;;;5093833;28;20017;-60
2022/05/02 00:44:59;;;;;;;20.58;14.50;;;13.80;99.90;;;;;;5093345;28;20513;-60
2022/05/02 00:47:25;;;;;;;15.50;11.45;;;13.70;99.90;;;;;;5092967;28;20052;-61
2022/05/02 00:49:51;;;;;;;15.88;10.85;;;13.70;99.90;;;;;;5093492;28;20050;-61
2022/05/02 00:52:18;;;;;;;15.52;11.82;;;13.70;99.90;;;;;;5093244;28;20016;-59
2022/05/02 00:54:45;;;;;;;14.98;11.27;;;13.70;99.90;;;;;;5093070;28;20133;-57
2022/05/02 00:57:12;;;;;;;16.33;12.30;;;13.70;99.90;;;;;;5093089;28;20051;-61
2022/05/02 00:59:39;;;;;;;18.25;13.00;;;13.80;99.90;;;;;;5093090;28;20024;-61
2022/05/02 01:02:06;;;;;;;16.63;12.73;;;13.80;99.90;;;;;;5092734;28;20035;-61
2022/05/02 01:04:32;;;;;;;15.15;11.60;;;13.70;99.90;;;;;;5093221;28;20020;-59
2022/05/02 01:07:11;;;;;;;14.75;10.40;;;13.70;99.90;;;;;;5093308;28;20028;-59
2022/05/02 01:09:43;;;;;;;22.20;16.20;;;13.70;99.90;;;;;;5093190;28;20032;-61
2022/05/02 01:12:12;;;;;;;20.77;14.15;;;13.80;99.90;;;;;;5093297;28;20044;-59
2022/05/02 01:14:39;;;;;;;23.58;16.33;;;13.70;99.90;;;;;;5092886;28;20016;-59
2022/05/02 01:17:06;;;;;;;24.30;16.25;;;13.80;99.90;;;;;;5092961;28;20043;-59
2022/05/02 01:19:32;;;;;;;21.52;15.68;;;13.80;99.90;;;;;;5092982;28;20063;-59
2022/05/02 01:21:58;;;;;;;19.42;15.15;;;13.80;99.90;;;;;;5093742;28;20023;-60
2022/05/02 01:24:35;;;;;;;21.40;14.05;;;13.80;99.90;;;;;;5096641;28;20020;-58
2022/05/02 01:27:01;;;;;;;19.33;14.35;;;13.80;99.90;;;;;;5096746;28;20103;-61
2022/05/02 01:29:27;;;;;;;18.95;13.80;;;13.70;99.90;;;;;;5096553;28;20142;-59
2022/05/02 01:31:54;;;;;;;20.88;14.57;;;13.70;99.90;;;;;;5096413;28;20483;-61
2022/05/02 01:34:20;;;;;;;18.40;13.50;;;13.70;99.90;;;;;;5096586;28;20028;-60
2022/05/02 01:36:46;;;;;;;18.40;13.25;;;13.60;99.90;;;;;;5096563;28;20028;-61
2022/05/02 01:39:12;;;;;;;14.77;11.27;;;13.50;99.90;;;;;;5096589;28;20489;-61
2022/05/02 01:41:37;;;;;;;13.68;10.52;;;13.50;99.90;;;;;;5096441;28;20500;-58
2022/05/02 01:44:03;;;;;;;15.30;10.80;;;13.50;99.90;;;;;;5096384;28;20100;-60
2022/05/02 01:46:29;;;;;;;18.23;13.50;;;13.60;99.90;;;;;;5096074;28;20093;-61
2022/05/02 01:48:56;;;;;;;15.13;10.85;;;13.60;99.90;;;;;;5096229;28;20359;-58
2022/05/02 01:51:22;;;;;;;12.38;9.77;;;13.50;99.90;;;;;;5096227;28;20012;-59
2022/05/02 01:53:47;;;;;;;11.82;9.15;;;13.50;99.90;;;;;;5095898;28;20382;-61
2022/05/02 01:56:13;;;;;;;12.93;9.63;;;13.50;99.90;;;;;;5095821;28;20055;-61
2022/05/02 01:58:39;;;;;;;10.55;7.93;;;13.50;99.90;;;;;;5096040;28;20493;-59
2022/05/02 02:01:05;;;;;;;12.15;9.45;;;13.60;99.90;;;;;;5095762;28;20024;-61
2022/05/02 02:03:31;;;;;;;15.00;9.48;;;13.60;99.90;;;;;;5096006;28;20382;-60
2022/05/02 02:05:58;;;;;;;13.43;9.50;;;13.60;99.90;;;;;;5095903;28;20027;-60
2022/05/02 02:08:28;;;;;;;13.48;9.82;;;13.60;99.90;;;;;;5095842;28;20506;-59
2022/05/02 02:10:56;;;;;;;13.52;9.60;;;13.60;99.90;;;;;;5095760;28;20028;-61
2022/05/02 02:13:22;;;;;;;15.25;9.98;;;13.60;99.90;;;;;;5095815;28;20069;-61
2022/05/02 02:15:48;;;;;;;14.73;9.95;;;13.60;99.90;;;;;;5095435;28;20095;-60
2022/05/02 02:18:14;;;;;;;12.63;8.98;;;13.50;99.90;;;;;;5095903;28;20032;-60
2022/05/02 02:20:42;;;;;;;11.48;8.68;;;13.60;99.90;;;;;;5095579;28;20028;-58
2022/05/02 02:23:09;;;;;;;14.25;9.90;;;13.50;99.90;;;;;;5095572;28;20050;-59
2022/05/02 02:25:36;;;;;;;14.48;10.05;;;13.50;99.90;;;;;;5095526;28;20027;-60
2022/05/02 02:28:02;;;;;;;19.55;13.05;;;13.40;99.90;;;;;;5095794;28;20386;-60
2022/05/02 02:30:29;;;;;;;15.10;11.05;;;13.40;99.90;;;;;;5095200;28;20020;-62
2022/05/02 02:32:59;;;;;;;14.57;11.27;;;13.40;99.90;;;;;;5095496;28;20028;-61
2022/05/02 02:35:25;;;;;;;16.70;11.18;;;13.30;99.90;;;;;;5094751;28;20028;-60
2022/05/02 02:37:51;;;;;;;13.68;10.27;;;13.30;99.90;;;;;;5095163;28;20024;-59
2022/05/02 02:40:18;;;;;;;12.38;9.23;;;13.30;99.90;;;;;;5095256;28;20024;-59
2022/05/02 02:42:44;;;;;;;14.35;9.27;;;13.20;99.90;;;;;;5095372;28;20073;-59
2022/05/02 02:45:10;;;;;;;14.05;10.75;;;13.20;99.90;;;;;;5095138;28;20020;-57
2022/05/02 02:47:36;;;;;;;13.30;9.55;;;13.20;99.90;;;;;;5095127;28;20031;-60
2022/05/02 02:50:03;;;;;;;12.65;8.95;;;13.20;99.90;;;;;;5095049;28;20020;-61
2022/05/02 02:52:29;;;;;;;12.38;9.05;;;13.20;99.90;;;;;;5095222;28;20063;-58
2022/05/02 02:54:55;;;;;;;20.00;11.63;;;13.20;99.90;;;;;;5094946;28;20071;-58
2022/05/02 02:57:21;;;;;;;12.32;10.02;;;13.20;99.90;;;;;;5094873;28;20094;-59
2022/05/02 02:59:46;;;;;;;17.10;13.13;;;13.20;99.90;;;;;;5094823;28;20021;-60
2022/05/02 03:02:13;;;;;;;16.98;12.55;;;13.20;99.90;;;;;;5094739;28;20501;-61
2022/05/02 03:07:26;;;;;;;29.60;20.00;;;13.10;99.90;;;;;;5094948;28;20072;-60
2022/05/02 03:09:52;;;;;;;22.30;16.23;;;13.00;99.90;;;;;;5094972;28;20047;-59
2022/05/02 03:12:19;;;;;;;23.23;15.95;;;12.90;99.90;;;;;;5094670;28;20020;-61
2022/05/02 03:14:45;;;;;;;20.67;14.52;;;12.90;99.90;;;;;;5094489;28;20020;-60
2022/05/02 03:17:11;;;;;;;18.60;14.38;;;12.90;99.90;;;;;;5094765;28;20157;-60
2022/05/02 03:19:38;;;;;;;17.08;13.55;;;12.90;99.90;;;;;;5094487;28;20028;-62
2022/05/02 03:22:04;;;;;;;19.25;13.45;;;12.90;99.90;;;;;;5094342;28;20024;-59
2022/05/02 03:24:29;;;;;;;17.65;12.68;;;12.90;99.90;;;;;;5094377;28;20055;-56
2022/05/02 03:26:55;;;;;;;21.33;14.07;;;12.80;99.90;;;;;;5094171;28;20052;-59
2022/05/02 03:29:21;;;;;;;16.17;11.43;;;12.70;99.90;;;;;;5094368;28;20115;-61
2022/05/02 03:31:47;;;;;;;16.58;11.38;;;12.60;99.90;;;;;;5094285;28;20521;-60
2022/05/02 03:34:12;;;;;;;16.27;12.40;;;12.60;99.90;;;;;;5094225;28;20054;-59
2022/05/02 03:36:38;;;;;;;13.35;10.27;;;12.60;99.90;;;;;;5094039;28;20034;-59
2022/05/02 03:39:04;;;;;;;18.10;12.80;;;12.60;99.90;;;;;;5094024;28;20016;-61
2022/05/02 03:41:30;;;;;;;16.88;11.52;;;12.60;99.90;;;;;;5093874;28;20020;-61
2022/05/02 03:43:56;;;;;;;11.90;10.07;;;12.60;99.90;;;;;;5094311;28;20051;-61
2022/05/02 03:46:22;;;;;;;15.95;11.43;;;12.60;99.90;;;;;;5093821;28;20019;-58
2022/05/02 03:48:48;;;;;;;14.02;9.95;;;12.60;99.90;;;;;;5093963;28;20104;-59
2022/05/02 03:51:14;;;;;;;15.93;10.77;;;12.60;99.90;;;;;;5093946;28;20521;-60
2022/05/02 03:53:40;;;;;;;15.98;11.13;;;12.70;99.90;;;;;;5094091;28;20375;-60
2022/05/02 03:56:05;;;;;;;15.55;11.23;;;12.70;99.90;;;;;;5093632;28;20055;-59
2022/05/02 03:58:31;;;;;;;16.08;10.63;;;12.70;99.90;;;;;;5093724;28;20431;-59
2022/05/02 04:00:57;;;;;;;13.63;10.20;;;12.70;99.90;;;;;;5093684;28;20077;-61
2022/05/02 04:03:23;;;;;;;16.58;10.30;;;12.70;99.90;;;;;;5094003;28;20028;-61
2022/05/02 04:05:49;;;;;;;15.18;11.10;;;12.70;99.90;;;;;;5094124;28;20105;-61
2022/05/02 04:08:15;;;;;;;14.10;9.77;;;12.70;99.90;;;;;;5093673;28;20078;-60
2022/05/02 04:10:41;;;;;;;19.40;12.30;;;12.70;99.90;;;;;;5093450;28;20046;-61
2022/05/02 04:13:06;;;;;;;19.75;12.90;;;12.70;99.90;;;;;;5093629;28;20027;-61
2022/05/02 04:15:34;;;;;;;17.55;11.70;;;12.70;99.90;;;;;;5093832;28;20394;-61
2022/05/02 04:17:59;;;;;;;14.38;10.20;;;12.70;99.90;;;;;;5093394;28;20032;-61
2022/05/02 04:20:25;;;;;;;15.45;11.13;;;12.70;99.90;;;;;;5093771;28;20030;-61
2022/05/02 04:22:51;;;;;;;20.52;13.30;;;12.70;99.90;;;;;;5093502;28;20024;-56
2022/05/02 04:25:16;;;;;;;17.27;12.02;;;12.70;99.90;;;;;;5093215;28;20024;-61
2022/05/02 04:27:43;;;;;;;13.75;10.70;;;12.70;99.90;;;;;;5093663;28;20107;-56
2022/05/02 04:30:10;;;;;;;13.52;10.75;;;12.70;99.90;;;;;;5093440;28;20028;-59
2022/05/02 04:32:36;;;;;;;17.13;11.98;;;12.70;99.90;;;;;;5093274;28;20024;-61
2022/05/02 04:35:03;;;;;;;17.02;11.93;;;12.80;99.90;;;;;;5093372;28;20024;-58
2022/05/02 04:37:29;;;;;;;16.08;12.13;;;12.80;99.90;;;;;;5093357;28;20473;-60
2022/05/02 04:39:55;;;;;;;20.42;13.15;;;12.80;99.90;;;;;;5093090;28;20055;-60
2022/05/02 04:42:21;;;;;;;17.02;11.23;;;12.90;99.90;;;;;;5093351;28;20099;-59
2022/05/02 04:44:47;;;;;;;15.32;10.23;;;13.00;99.90;;;;;;5093363;28;20020;-60
2022/05/02 04:47:13;;;;;;;14.98;10.13;;;13.00;99.90;;;;;;5093280;28;20052;-60
2022/05/02 04:49:38;;;;;;;13.60;10.38;;;13.10;99.90;;;;;;5093122;28;20051;-60
2022/05/02 04:52:04;;;;;;;12.23;9.55;;;13.20;99.90;;;;;;5093353;28;20058;-61
2022/05/02 04:54:30;;;;;;;13.68;10.27;;;13.20;99.90;;;;;;5092750;28;20020;-58
2022/05/02 04:56:56;;;;;;;12.63;10.10;;;13.30;99.90;;;;;;5093759;28;20031;-60
2022/05/02 04:59:22;;;;;;;13.07;10.38;;;13.30;99.90;;;;;;5097087;28;20020;-60
2022/05/02 05:01:47;;;;;;;19.90;13.82;;;13.30;99.90;;;;;;5097201;28;20103;-60
2022/05/02 05:04:13;;;;;;;23.85;15.95;;;13.40;99.90;;;;;;5097023;28;20489;-58
2022/05/02 05:06:39;;;;;;;19.50;14.73;;;13.40;99.90;;;;;;5097201;28;20105;-60
2022/05/02 05:09:05;;;;;;;17.27;13.30;;;13.40;99.90;;;;;;5097102;28;20091;-60
2022/05/02 05:11:35;;;;;;;16.70;13.02;;;13.60;99.90;;;;;;5096898;28;20425;-59
2022/05/02 05:17:44;;;;;;;13.00;10.38;;;13.70;99.90;;;;;;5096887;28;20093;-60
2022/05/02 05:20:31;;;;;;;16.85;12.30;;;13.80;99.90;;;;;;5096820;28;20027;-60
2022/05/02 05:23:25;;;;;;;11.70;10.10;;;14.00;99.90;;;;;;5096566;28;20108;-60
2022/05/02 05:26:16;;;;;;;14.25;10.93;;;14.10;99.90;;;;;;5097136;28;20435;-60
2022/05/02 05:29:08;;;;;;;18.83;15.10;;;14.20;99.90;;;;;;5096695;28;20474;-61
2022/05/02 05:31:42;;;;;;;15.90;12.02;;;14.40;99.90;;;;;;5096550;28;20024;-60
2022/05/02 05:34:26;;;;;;;13.50;10.93;;;14.50;99.90;;;;;;5096553;28;20017;-61
2022/05/02 05:37:10;;;;;;;15.70;11.55;;;14.70;99.90;;;;;;5096400;28;20101;-60
2022/05/02 05:39:57;;;;;;;12.40;11.10;;;14.80;99.90;;;;;;5096292;28;20486;-59
2022/05/02 05:42:39;;;;;;;13.45;11.43;;;14.90;99.90;;;;;;5096416;28;20016;-60
2022/05/02 05:45:10;;;;;;;22.10;14.88;;;15.00;99.90;;;;;;5096331;28;20024;-61
2022/05/02 05:48:19;;;;;;;16.88;12.75;;;15.10;99.90;;;;;;5096309;28;20024;-57
2022/05/02 05:50:53;;;;;;;16.48;11.65;;;15.20;99.90;;;;;;5096250;28;20044;-59
2022/05/02 05:53:57;;;;;;;12.15;10.75;;;15.30;99.90;;;;;;5096096;28;20020;-61
2022/05/02 05:56:43;;;;;;;12.40;11.02;;;15.50;99.90;;;;;;5054150;28;20066;-61
2022/05/02 05:59:47;;;;;;;14.27;10.77;;;15.60;99.90;;;;;;5077855;28;20481;-57
2022/05/02 06:02:27;;;;;;;10.70;9.57;;;15.80;99.90;;;;;;5091943;28;20393;-60
2022/05/02 06:04:57;;;;;;;11.60;9.05;;;16.00;99.90;;;;;;5096258;28;20036;-61
2022/05/02 06:07:27;;;;;;;13.10;10.38;;;16.30;99.90;;;;;;5095927;28;20386;-60
2022/05/02 06:10:00;;;;;;;11.90;9.20;;;16.40;99.90;;;;;;5094806;28;20363;-58
2022/05/02 06:12:30;;;;;;;15.02;11.68;;;16.50;99.90;;;;;;5096145;28;20020;-61
2022/05/02 06:20:38;;;;;;;12.00;10.52;;;16.70;99.90;;;;;;5096049;28;20084;-61
2022/05/02 06:23:13;;;;;;;13.15;10.70;;;16.70;99.90;;;;;;5095635;28;20107;-60
2022/05/02 06:25:41;;;;;;;11.57;10.45;;;16.70;99.90;;;;;;5095864;28;20381;-59
2022/05/02 06:28:08;;;;;;;12.70;10.13;;;16.70;99.90;;;;;;5095833;28;20051;-61
2022/05/02 06:30:38;;;;;;;10.93;9.65;;;16.80;99.90;;;;;;5095692;28;20016;-61
2022/05/02 06:33:14;;;;;;;13.55;11.35;;;16.90;99.90;;;;;;5095709;28;20355;-60
2022/05/02 06:36:18;;;;;;;11.55;10.32;;;17.00;99.90;;;;;;5095398;28;20043;-60
2022/05/02 06:38:52;;;;;;;14.00;10.55;;;17.10;99.90;;;;;;5091336;28;20048;-59
2022/05/02 06:41:42;;;;;;;10.98;8.73;;;17.30;99.90;;;;;;5095213;28;20123;-60
2022/05/02 06:44:17;;;;;;;9.98;8.68;;;17.50;99.90;;;;;;5095081;28;20496;-60
2022/05/02 06:46:51;;;;;;;8.77;7.85;;;17.80;99.90;;;;;;5095190;28;20028;-61
2022/05/02 06:49:17;;;;;;;9.32;8.13;;;18.30;99.90;;;;;;5095076;28;20031;-61
2022/05/02 06:51:49;;;;;;;11.07;9.70;;;19.00;99.90;;;;;;5095072;28;20032;-61
2022/05/02 06:54:15;;;;;;;8.85;7.97;;;19.90;99.90;;;;;;5095002;28;20501;-61
2022/05/02 06:56:56;;;;;;;8.70;7.85;;;20.70;98.60;;;;;;5094647;28;20036;-62
2022/05/02 06:59:31;;;;;;;10.07;9.07;;;21.60;94.60;;;;;;5094893;28;20086;-61
2022/05/02 07:02:02;;;;;;;10.30;9.20;;;22.50;91.30;;;;;;5094797;28;20023;-61
2022/05/02 07:04:31;;;;;;;9.25;8.25;;;23.30;83.00;;;;;;5094734;28;20479;-60
2022/05/02 07:07:24;;;;;;;9.20;8.27;;;23.40;78.00;;;;;;5094845;28;20032;-62
2022/05/02 07:10:01;;;;;;;8.23;7.43;;;24.00;76.60;;;;;;5094833;28;20420;-60
2022/05/02 07:12:30;;;;;;;10.25;9.05;;;24.50;71.30;;;;;;5094653;28;20478;-60
2022/05/02 07:15:16;;;;;;;10.40;8.23;;;24.70;69.80;;;;;;5094881;28;20028;-62
2022/05/02 07:17:42;;;;;;;8.27;7.47;;;24.90;65.00;;;;;;5094450;28;20085;-60
2022/05/02 07:20:31;;;;;;;9.30;7.95;;;25.00;65.60;;;;;;5093886;28;20493;-61
2022/05/02 07:23:31;;;;;;;7.38;6.68;;;25.30;63.80;;;;;;5094589;28;20016;-61
2022/05/02 07:26:14;;;;;;;7.35;6.65;;;26.10;63.10;;;;;;5094441;28;20069;-60
2022/05/02 07:28:48;;;;;;;7.22;6.53;;;26.60;61.60;;;;;;5094619;28;20020;-62
2022/05/02 07:31:21;;;;;;;6.43;5.82;;;26.90;58.10;;;;;;5094336;28;20028;-60
2022/05/02 07:33:49;;;;;;;7.55;6.63;;;27.10;57.40;;;;;;5094267;28;20028;-60
2022/05/02 07:36:17;;;;;;;6.07;5.40;;;27.40;58.50;;;;;;5094398;28;20038;-62
2022/05/02 07:38:47;;;;;;;7.10;5.28;;;27.60;57.50;;;;;;5094182;28;20081;-61
2022/05/02 07:41:23;;;;;;;5.40;4.90;;;27.70;55.70;;;;;;5094456;28;20024;-60
2022/05/02 07:44:03;;;;;;;5.70;5.07;;;27.80;52.90;;;;;;5094231;28;20054;-60
2022/05/02 07:46:35;;;;;;;5.88;4.43;;;27.50;51.90;;;;;;5094109;28;20483;-62
2022/05/02 07:49:03;;;;;;;7.93;5.35;;;26.70;56.50;;;;;;5093814;28;20095;-61
2022/05/02 07:51:30;;;;;;;7.13;4.97;;;26.20;55.40;;;;;;5093916;28;20104;-61
2022/05/02 07:54:01;;;;;;;6.15;5.13;;;26.30;55.30;;;;;;5094301;28;20076;-61
2022/05/02 07:56:30;;;;;;;6.10;5.60;;;26.70;55.90;;;;;;5093657;28;20047;-60
2022/05/02 07:58:59;;;;;;;5.93;5.40;;;27.20;53.60;;;;;;5093898;28;20052;-62
2022/05/02 08:01:25;;;;;;;5.90;5.40;;;27.70;53.30;;;;;;5093811;28;20107;-60
2022/05/02 08:03:52;;;;;;;5.88;5.22;;;28.10;55.40;;;;;;5093541;28;20111;-62
2022/05/02 08:06:21;;;;;;;5.18;4.78;;;28.40;55.60;;;;;;5093953;28;20020;-61
2022/05/02 08:09:09;;;;;;;5.20;4.70;;;28.70;52.90;;;;;;5093817;28;20032;-61
2022/05/02 08:12:17;;;;;;;5.55;5.05;;;29.20;51.20;;;;;;5085296;28;20038;-61
2022/05/02 08:14:51;;;;;;;5.00;4.20;;;29.10;49.40;;;;;;5072447;28;20043;-61
2022/05/02 08:17:27;;;;;;;4.93;4.43;;;28.90;49.70;;;;;;5093512;28;20536;-60
2022/05/02 08:20:07;;;;;;;4.43;4.03;;;29.00;49.60;;;;;;5093737;28;20042;-61
2022/05/02 08:28:58;;;;;;;6.90;5.32;;;27.50;49.00;;;;;;5093841;28;20547;-60
2022/05/02 08:31:52;;;;;;;6.32;5.72;;;27.60;53.20;;;;;;5092339;28;20111;-61
2022/05/02 08:34:38;;;;;;;6.03;5.43;;;27.50;51.20;;;;;;5093677;28;20027;-60
2022/05/02 08:37:28;;;;;;;7.82;6.80;;;27.10;52.00;;;;;;5082529;28;20040;-60
2022/05/02 08:40:02;;;;;;;6.45;5.65;;;27.30;49.40;;;;;;5093269;28;20016;-61
2022/05/02 08:42:46;;;;;;;7.13;6.43;;;27.50;53.90;;;;;;5093283;28;20052;-61
2022/05/02 08:45:27;;;;;;;6.60;6.00;;;27.60;50.40;;;;;;5093221;28;20017;-60
2022/05/02 08:47:53;;;;;;;9.70;8.30;;;27.30;51.10;;;;;;5093059;28;20025;-62
2022/05/02 08:50:36;;;;;;;9.73;8.27;;;27.10;50.00;;;;;;5093113;28;20027;-62
2022/05/02 08:53:43;;;;;;;8.18;6.70;;;27.00;50.50;;;;;;5093199;28;20471;-62
2022/05/02 08:56:29;;;;;;;6.80;6.10;;;27.30;50.50;;;;;;5064029;28;20517;-62
2022/05/02 08:59:09;;;;;;;7.07;5.32;;;27.30;52.50;;;;;;5092984;28;20083;-60
2022/05/02 09:02:04;;;;;;;7.10;6.18;;;27.50;52.00;;;;;;5092907;28;20077;-61
2022/05/02 09:05:00;;;;;;;6.32;5.72;;;27.60;52.40;;;;;;5069432;28;20071;-60
2022/05/02 09:07:47;;;;;;;6.60;5.70;;;27.90;52.40;;;;;;5093274;28;20389;-61
2022/05/02 09:10:20;;;;;;;5.53;4.85;;;28.00;51.20;;;;;;5093018;28;20024;-62
2022/05/02 09:13:04;;;;;;;9.35;6.90;;;28.40;51.40;;;;;;5093150;28;20027;-62
2022/05/02 09:15:45;;;;;;;6.72;6.05;;;27.80;47.70;;;;;;5092833;28;20036;-62
2022/05/02 09:18:30;;;;;;;6.72;6.05;;;26.50;52.40;;;;;;5092947;28;20042;-61
2022/05/02 09:20:56;;;;;;;7.43;5.70;;;26.80;55.00;;;;;;5092888;28;20135;-62
2022/05/02 09:23:49;;;;;;;6.18;5.57;;;27.80;52.60;;;;;;5092956;28;20447;-60
2022/05/02 09:26:17;;;;;;;6.25;5.57;;;28.40;51.00;;;;;;5092830;28;20035;-62
2022/05/02 09:29:01;;;;;;;5.25;4.75;;;28.70;52.20;;;;;;5092845;28;20142;-61
2022/05/02 09:31:51;;;;;;;5.70;5.20;;;29.10;52.00;;;;;;5092571;28;20055;-62
2022/05/02 09:34:18;;;;;;;5.53;5.03;;;28.40;49.30;;;;;;5092849;28;20024;-59
2022/05/02 09:36:53;;;;;;;7.07;5.80;;;27.90;50.00;;;;;;5092860;28;20382;-61
2022/05/02 09:39:46;;;;;;;6.65;5.13;;;27.40;52.10;;;;;;5092778;28;20077;-62
2022/05/02 09:42:15;;;;;;;6.32;5.03;;;26.90;53.10;;;;;;5092984;28;20059;-61
2022/05/02 09:51:20;;;;;;;6.15;4.68;;;25.80;50.90;;;;;;5096415;28;20133;-60
2022/05/02 09:54:09;;;;;;;5.05;4.50;;;25.50;53.60;;;;;;5085112;28;20040;-60
2022/05/02 09:56:46;;;;;;;5.30;4.85;;;25.50;53.30;;;;;;5065737;28;20095;-60
2022/05/02 09:59:25;;;;;;;5.40;4.90;;;26.00;55.20;;;;;;5077828;28;20423;-61
2022/05/02 10:02:05;;;;;;;5.68;5.18;;;26.90;52.60;;;;;;5096095;28;20465;-61
2022/05/02 10:04:53;;;;;;;5.60;5.10;;;27.10;49.80;;;;;;5096344;28;20097;-60
2022/05/02 10:07:24;;;;;;;5.40;4.90;;;27.30;51.80;;;;;;5096131;28;20024;-62
2022/05/02 10:10:02;;;;;;;8.10;7.30;;;27.40;53.20;;;;;;5096193;28;20031;-60
2022/05/02 10:12:42;;;;;;;8.68;6.60;;;27.00;48.80;;;;;;5095779;28;20111;-60
2022/05/02 10:15:29;;;;;;;6.15;5.55;;;27.30;52.90;;;;;;5095608;28;20023;-61
2022/05/02 10:18:30;;;;;;;5.60;5.20;;;27.80;50.80;;;;;;5095593;28;20077;-60
2022/05/02 10:21:01;;;;;;;5.22;4.50;;;27.60;50.90;;;;;;5033315;28;20033;-61
2022/05/02 10:23:54;;;;;;;4.85;4.35;;;26.90;49.50;;;;;;5085193;28;20043;-61
2022/05/02 10:26:31;;;;;;;;;;;26.60;50.70;;;;;;5095871;28;20524;-61
2022/05/02 10:29:30;;;;;;;4.60;4.20;;;26.30;52.50;;;;;;5095386;28;20259;-62
2022/05/02 10:32:19;;;;;;;5.80;4.43;;;26.20;51.90;;;;;;5095492;28;20074;-62
2022/05/02 10:34:47;;;;;;;5.05;4.53;;;26.00;52.10;;;;;;5066791;28;20040;-60
2022/05/02 10:37:15;;;;;;;5.38;4.53;;;25.90;51.60;;;;;;5095591;28;20413;-62
2022/05/02 10:39:47;;;;;;;4.65;4.25;;;26.00;51.60;;;;;;5095582;28;20032;-62
2022/05/02 10:42:19;;;;;;;4.82;4.43;;;25.50;51.80;;;;;;5095394;28;20024;-62
2022/05/02 10:45:11;;;;;;;4.50;4.10;;;25.80;54.00;;;;;;5095230;28;20035;-60
2022/05/02 10:47:54;;;;;;;4.53;4.13;;;25.60;53.40;;;;;;5090911;28;20428;-62
2022/05/02 10:50:21;;;;;;;;;;;25.50;51.50;;;;;;5095487;28;20020;-62
2022/05/02 10:52:46;;;;;;;5.07;4.40;;;25.50;52.20;;;;;;5095054;28;19904;-61
2022/05/02 10:55:26;;;;;;;4.10;3.80;;;25.50;53.50;;;;;;5094202;28;20043;-61
2022/05/02 10:57:53;;;;;;;4.35;3.95;;;25.70;55.80;;;;;;5094584;28;20063;-61
2022/05/02 11:00:21;;;;;;;6.03;5.13;;;26.00;52.60;;;;;;5094983;28;20050;-61
2022/05/02 11:03:16;;;;;;;5.82;5.28;;;25.80;51.90;;;;;;5095129;28;20020;-62
2022/05/02 11:05:52;;;;;;;6.85;5.50;;;26.50;51.80;;;;;;5094840;28;20479;-60
2022/05/02 11:08:30;;;;;;;6.95;5.60;;;26.40;50.60;;;;;;5094727;28;20052;-61
2022/05/02 11:11:05;;;;;;;6.40;5.82;;;26.00;49.90;;;;;;5094726;28;20024;-61
2022/05/02 11:13:44;;;;;;;7.95;5.28;;;25.50;50.90;;;;;;5094443;28;20047;-62
2022/05/02 11:16:27;;;;;;;5.93;5.28;;;25.50;50.50;;;;;;5094670;28;20016;-61
2022/05/02 11:21:46;;;;;;;4.80;4.30;;;26.10;51.50;;;;;;5094586;28;19911;-62
2022/05/02 11:25:07;;;;;;;4.63;4.22;;;26.80;51.50;;;;;;5094378;28;20023;-60
2022/05/02 11:27:46;;;;;;;4.22;3.83;;;27.10;51.30;;;;;;5072146;28;20043;-62
2022/05/02 11:30:13;;;;;;;3.60;3.30;;;27.00;49.80;;;;;;5094434;28;20499;-60
2022/05/02 11:33:05;;;;;;;3.65;3.35;;;26.90;49.70;;;;;;5094176;28;20478;-61
2022/05/02 11:35:33;;;;;;;5.75;4.10;;;27.00;49.50;;;;;;5093820;28;20043;-60
2022/05/02 11:38:26;;;;;;;4.15;3.85;;;26.80;48.00;;;;;;5094144;28;20444;-61
2022/05/02 11:40:58;;;;;;;4.15;3.80;;;26.50;48.20;;;;;;5093903;28;20131;-60
2022/05/02 11:43:28;;;;;;;5.03;4.60;;;26.80;48.80;;;;;;5094128;28;20122;-62
2022/05/02 11:46:05;;;;;;;4.40;3.72;;;27.00;47.50;;;;;;5094113;28;20055;-61
2022/05/02 11:48:45;;;;;;;6.57;5.97;;;27.00;47.60;;;;;;5094305;28;20035;-61
2022/05/02 11:51:40;;;;;;;5.35;4.85;;;27.10;48.50;;;;;;5094264;28;20065;-61
2022/05/02 11:54:15;;;;;;;3.90;3.50;;;27.10;47.00;;;;;;5094424;28;20481;-62
2022/05/02 11:57:07;;;;;;;3.90;3.50;;;27.00;47.50;;;;;;5093495;28;20083;-62
2022/05/02 11:59:48;;;;;;;4.07;3.38;;;27.00;47.60;;;;;;5093875;28;20524;-62
2022/05/02 12:02:51;;;;;;;3.78;3.30;;;26.70;46.10;;;;;;5093850;28;20610;-62
2022/05/02 12:05:52;;;;;;;3.78;3.40;;;26.50;47.60;;;;;;5086281;28;20542;-62
2022/05/02 12:08:46;;;;;;;3.08;2.70;;;26.50;45.90;;;;;;5060996;28;20500;-60
2022/05/02 12:11:14;;;;;;;3.10;2.90;;;26.60;47.70;;;;;;5091480;28;20482;-61
2022/05/02 12:13:44;;;;;;;3.58;2.55;;;26.80;44.60;;;;;;5093822;28;20023;-61
2022/05/02 12:16:13;;;;;;;3.60;2.60;;;26.90;45.60;;;;;;5093705;28;20028;-61
2022/05/02 12:18:53;;;;;;;2.90;2.70;;;27.00;43.50;;;;;;5093404;28;20028;-61
2022/05/02 12:21:47;;;;;;;2.65;2.40;;;27.20;44.60;;;;;;5093535;28;20386;-60
2022/05/02 12:24:26;;;;;;;3.08;2.33;;;27.50;43.80;;;;;;5093249;28;20077;-62
2022/05/02 12:26:53;;;;;;;2.75;2.20;;;27.50;43.30;;;;;;5093448;28;20063;-58
2022/05/02 12:29:19;;;;;;;2.30;2.10;;;27.10;42.90;;;;;;5093638;28;20417;-59
2022/05/02 12:32:01;;;;;;;2.75;2.38;;;26.80;42.50;;;;;;5093534;28;20020;-60
2022/05/02 12:34:46;;;;;;;3.88;2.45;;;26.50;43.50;;;;;;5093449;28;20020;-60
2022/05/02 12:37:23;;;;;;;2.40;2.03;;;26.50;41.90;;;;;;5093299;28;20027;-60
2022/05/02 12:40:13;;;;;;;5.78;2.20;;;26.30;43.70;;;;;;5092993;28;20075;-58
2022/05/02 12:42:44;;;;;;;3.50;2.30;;;26.40;44.40;;;;;;5085536;28;20042;-59
2022/05/02 12:45:13;;;;;;;2.95;2.00;;;25.90;42.50;;;;;;5093215;28;20020;-60
2022/05/02 12:47:42;;;;;;;3.03;2.00;;;25.60;42.20;;;;;;5093386;28;20059;-61
2022/05/02 12:50:16;;;;;;;2.97;2.13;;;25.80;44.70;;;;;;5093211;28;20031;-60
2022/05/02 12:52:46;;;;;;;2.50;2.13;;;26.00;45.70;;;;;;5093321;28;20048;-58
2022/05/02 12:55:13;;;;;;;3.75;3.45;;;26.10;45.20;;;;;;5092924;28;20056;-58
2022/05/02 13:00:32;;;;;;;2.90;2.25;;;26.70;43.30;;;;;;5093120;28;20058;-58
2022/05/02 13:03:09;;;;;;;4.18;2.10;;;26.80;42.00;;;;;;5093019;28;20486;-58
2022/05/02 13:05:38;;;;;;;3.35;2.30;;;26.50;42.40;;;;;;5093283;28;20062;-62
2022/05/02 13:08:36;;;;;;;2.30;1.90;;;26.60;46.00;;;;;;5093184;28;20386;-60
2022/05/02 13:11:04;;;;;;;1.75;1.65;;;26.70;44.50;;;;;;5093132;28;20023;-61
2022/05/02 13:13:58;;;;;;;1.85;1.52;;;26.70;45.90;;;;;;5092957;28;20022;-61
2022/05/02 13:16:28;;;;;;;1.92;1.80;;;26.80;43.30;;;;;;5090984;28;20071;-60
2022/05/02 13:18:57;;;;;;;2.90;1.90;;;26.80;42.40;;;;;;5095227;28;20115;-60
2022/05/02 13:21:23;;;;;;;2.40;1.70;;;26.80;44.50;;;;;;5096989;28;20386;-62
2022/05/02 13:24:18;;;;;;;2.53;2.00;;;27.00;43.50;;;;;;5096884;28;20024;-60
2022/05/02 13:27:05;;;;;;;2.08;1.83;;;27.30;42.80;;;;;;5083425;28;20028;-61
2022/05/02 13:29:39;;;;;;;1.38;1.27;;;27.40;41.50;;;;;;5096935;28;20026;-61
2022/05/02 13:32:08;;;;;;;1.58;1.48;;;27.30;42.90;;;;;;5096662;28;20063;-63
2022/05/02 13:35:11;;;;;;;1.65;1.55;;;27.50;43.20;;;;;;5096589;28;20024;-61
2022/05/02 13:38:05;;;;;;;2.30;1.58;;;27.40;41.20;;;;;;5096315;28;20111;-60
2022/05/02 13:40:42;;;;;;;1.70;1.60;;;27.00;44.80;;;;;;5093312;28;20036;-62
2022/05/02 13:43:11;;;;;;;1.60;1.50;;;27.00;42.40;;;;;;5096427;28;20381;-60